Time;durP1;ratioP1;P1;durP2;ratioP2;P2;SDS_P1;SDS_P2;PMS_P1;PMS_P2;Temp;Humidity;BMP_temperature;BMP_pressure;BME280_temperature;BME280_humidity;BME280_pressure;Samples;Min_cycle;Max_cycle;Signal;HPM_P1;HPM_P2
2022/01/24 00:00:00;;;;;;;9.52;5.90;;;;;;;;;;5108804;28;20058;-92
2022/01/24 00:02:29;;;;;;;9.50;5.18;;;;;;;;;;5110274;27;20036;-92
2022/01/24 00:04:55;;;;;;;9.40;5.78;;;;;;;;;;5110685;28;20399;-92
2022/01/24 00:07:23;;;;;;;9.73;5.68;;;;;;;;;;5127800;27;20040;-93
2022/01/24 00:09:52;;;;;;;9.80;6.13;;;;;;;;;;5093335;28;20051;-92
2022/01/24 00:12:27;;;;;;;9.80;6.65;;;;;;;;;;5110293;28;20100;-92
2022/01/24 00:15:09;;;;;;;9.55;6.38;;;;;;;;;;5093192;28;20047;-92
2022/01/24 00:28:19;;;;;;;10.35;6.20;;;;;;;;;;5110223;28;20474;-93
2022/01/24 00:30:45;;;;;;;12.52;6.50;;;;;;;;;;5092737;28;20044;-92
2022/01/24 00:33:11;;;;;;;9.75;6.32;;;;;;;;;;5093046;28;20408;-92
2022/01/24 00:35:37;;;;;;;10.85;6.55;;;;;;;;;;5092452;28;20047;-92
2022/01/24 00:38:04;;;;;;;13.55;6.07;;;;;;;;;;5092830;28;20043;-92
2022/01/24 00:40:35;;;;;;;11.07;6.45;;;;;;;;;;5075953;28;20492;-92
2022/01/24 00:43:02;;;;;;;10.30;7.05;;;;;;;;;;5090912;28;20040;-92
2022/01/24 00:45:35;;;;;;;10.75;6.68;;;;;;;;;;5055583;28;20487;-93
2022/01/24 00:48:23;;;;;;;11.85;7.53;;;;;;;;;;5055590;28;20047;-93
2022/01/24 00:53:59;;;;;;;;;;;;;;;;;;5056020;28;20542;-92
2022/01/24 00:56:25;;;;;;;12.13;7.10;;;;;;;;;;5055338;28;19920;-93
2022/01/24 00:58:51;;;;;;;11.32;7.32;;;;;;;;;;5055931;28;20052;-92
2022/01/24 01:01:17;;;;;;;13.93;7.70;;;;;;;;;;5089057;28;20036;-93
2022/01/24 01:03:44;;;;;;;11.88;7.10;;;;;;;;;;5058859;28;20039;-93
2022/01/24 01:06:11;;;;;;;9.90;6.85;;;;;;;;;;5058470;28;20044;-92
2022/01/24 01:19:38;;;;;;;14.20;8.70;;;;;;;;;;5075152;28;20503;-92
2022/01/24 01:22:05;;;;;;;14.18;9.07;;;;;;;;;;5058632;28;20661;-92
2022/01/24 01:24:36;;;;;;;14.50;8.35;;;;;;;;;;5058053;28;20046;-91
2022/01/24 01:27:08;;;;;;;12.65;8.50;;;;;;;;;;5108448;28;20044;-91
2022/01/24 01:29:50;;;;;;;12.77;8.35;;;;;;;;;;5108734;28;20042;-91
2022/01/24 01:32:42;;;;;;;12.32;8.30;;;;;;;;;;5058434;28;20039;-91
2022/01/24 01:35:37;;;;;;;12.90;7.63;;;;;;;;;;5073567;28;20048;-92
2022/01/24 01:54:35;;;;;;;11.50;7.30;;;;;;;;;;5074493;28;20119;-91
2022/01/24 01:56:48;;;;;;;12.07;7.57;;;;;;;;;;5073811;28;20059;-92
2022/01/24 01:59:14;;;;;;;11.07;7.35;;;;;;;;;;5057577;28;20043;-91
2022/01/24 02:01:41;;;;;;;12.73;8.98;;;;;;;;;;5108473;28;20047;-92
2022/01/24 02:04:07;;;;;;;13.82;8.20;;;;;;;;;;5058062;28;20742;-92
2022/01/24 02:06:33;;;;;;;15.02;9.70;;;;;;;;;;5091823;28;20036;-92
2022/01/24 02:09:00;;;;;;;12.23;8.77;;;;;;;;;;5074761;28;20042;-92
2022/01/24 02:11:26;;;;;;;13.50;8.18;;;;;;;;;;5074633;28;20062;-92
2022/01/24 02:13:53;;;;;;;14.73;9.15;;;;;;;;;;5091956;28;20089;-92
2022/01/24 02:19:19;;;;;;;11.82;8.00;;;;;;;;;;5108330;28;20036;-92
2022/01/24 02:22:04;;;;;;;11.55;7.82;;;;;;;;;;5074629;28;20036;-93
2022/01/24 02:24:39;;;;;;;12.38;7.35;;;;;;;;;;5091326;28;20072;-92
2022/01/24 02:27:05;;;;;;;12.88;8.45;;;;;;;;;;5091666;28;20492;-92
2022/01/24 02:32:16;;;;;;;;;;;;;;;;;;5074683;28;20032;-91
2022/01/24 02:34:45;;;;;;;13.18;8.30;;;;;;;;;;5091423;28;19919;-91
2022/01/24 02:37:13;;;;;;;12.27;7.55;;;;;;;;;;5058130;28;20036;-92
2022/01/24 02:39:49;;;;;;;12.40;8.02;;;;;;;;;;5074094;28;20044;-92
2022/01/24 02:53:15;;;;;;;12.40;8.07;;;;;;;;;;5073895;28;20657;-91
2022/01/24 02:55:42;;;;;;;13.65;8.85;;;;;;;;;;5057164;28;20063;-91
2022/01/24 02:58:08;;;;;;;13.20;8.45;;;;;;;;;;5073885;28;20036;-92
2022/01/24 03:00:34;;;;;;;14.13;8.85;;;;;;;;;;5073698;28;20723;-92
2022/01/24 03:03:01;;;;;;;14.48;8.88;;;;;;;;;;5057396;28;20480;-92
2022/01/24 03:05:27;;;;;;;13.70;8.55;;;;;;;;;;5056949;28;20047;-92
2022/01/24 03:07:53;;;;;;;12.88;8.43;;;;;;;;;;5057104;28;20050;-92
2022/01/24 03:10:26;;;;;;;13.77;8.80;;;;;;;;;;5073647;28;20101;-92
2022/01/24 03:13:32;;;;;;;13.60;8.73;;;;;;;;;;5057797;28;20110;-92
2022/01/24 03:15:46;;;;;;;13.15;9.38;;;;;;;;;;5070304;28;20089;-92
2022/01/24 03:18:13;;;;;;;14.82;9.40;;;;;;;;;;5077584;28;20047;-92
2022/01/24 03:20:43;;;;;;;17.75;8.70;;;;;;;;;;5061050;28;20487;-92
2022/01/24 03:23:10;;;;;;;13.05;8.35;;;;;;;;;;5077735;28;20040;-91
2022/01/24 03:25:36;;;;;;;14.02;9.25;;;;;;;;;;5077220;28;20043;-91
2022/01/24 03:28:04;;;;;;;14.57;8.35;;;;;;;;;;5060728;28;20089;-93
2022/01/24 03:30:30;;;;;;;14.02;9.30;;;;;;;;;;5077618;28;20052;-91
2022/01/24 03:32:56;;;;;;;14.30;9.27;;;;;;;;;;5076994;28;20072;-91
2022/01/24 03:35:22;;;;;;;13.65;7.78;;;;;;;;;;5060527;28;20085;-92
2022/01/24 03:37:49;;;;;;;14.18;9.30;;;;;;;;;;5077147;28;20075;-91
2022/01/24 03:40:15;;;;;;;14.63;9.05;;;;;;;;;;5077022;28;20046;-92
2022/01/24 03:42:41;;;;;;;15.15;9.57;;;;;;;;;;5076898;28;20123;-92
2022/01/24 03:45:15;;;;;;;13.27;8.73;;;;;;;;;;5060048;28;20768;-92
2022/01/24 03:48:05;;;;;;;13.85;9.13;;;;;;;;;;5077534;28;20411;-92
2022/01/24 03:50:31;;;;;;;15.30;9.23;;;;;;;;;;5076943;28;20044;-92
2022/01/24 03:52:57;;;;;;;15.27;9.38;;;;;;;;;;5060254;28;20102;-92
2022/01/24 03:55:24;;;;;;;14.93;9.25;;;;;;;;;;5060503;28;20445;-92
2022/01/24 03:57:50;;;;;;;14.95;9.23;;;;;;;;;;5076519;28;20032;-92
2022/01/24 04:00:16;;;;;;;16.35;9.38;;;;;;;;;;5076869;28;20484;-91
2022/01/24 04:02:42;;;;;;;15.60;9.88;;;;;;;;;;5060007;28;20449;-92
2022/01/24 04:05:09;;;;;;;16.50;9.50;;;;;;;;;;5059647;28;20486;-91
2022/01/24 04:07:35;;;;;;;16.33;9.98;;;;;;;;;;5059693;28;20433;-92
2022/01/24 04:10:07;;;;;;;16.15;10.13;;;;;;;;;;5059945;28;20073;-91
2022/01/24 04:12:36;;;;;;;17.05;10.75;;;;;;;;;;5059849;28;20044;-92
2022/01/24 04:15:58;;;;;;;20.20;11.90;;;;;;;;;;5076108;28;20044;-91
2022/01/24 04:18:12;;;;;;;17.80;11.93;;;;;;;;;;5063315;28;20089;-91
2022/01/24 04:23:24;;;;;;;18.85;11.23;;;;;;;;;;5076135;28;20046;-91
2022/01/24 04:25:50;;;;;;;17.02;10.88;;;;;;;;;;5059586;28;20132;-92
2022/01/24 04:28:16;;;;;;;19.10;11.73;;;;;;;;;;5076309;28;20047;-92
2022/01/24 04:30:42;;;;;;;20.90;12.77;;;;;;;;;;5059593;28;20047;-92
2022/01/24 04:33:09;;;;;;;18.42;12.10;;;;;;;;;;5076262;28;20040;-91
2022/01/24 04:35:35;;;;;;;20.00;12.68;;;;;;;;;;5076125;28;20085;-91
2022/01/24 04:38:01;;;;;;;20.15;12.57;;;;;;;;;;5076111;28;20082;-92
2022/01/24 04:40:28;;;;;;;22.17;12.38;;;;;;;;;;5076246;28;20047;-91
2022/01/24 04:43:04;;;;;;;20.77;12.23;;;;;;;;;;5059250;28;20047;-91
2022/01/24 04:45:56;;;;;;;21.33;12.55;;;;;;;;;;5059627;28;20487;-91
2022/01/24 04:56:31;;;;;;;20.90;14.23;;;;;;;;;;5075545;28;20040;-91
2022/01/24 04:58:57;;;;;;;22.45;14.02;;;;;;;;;;5058684;28;20036;-91
2022/01/24 05:01:23;;;;;;;22.38;14.40;;;;;;;;;;5058899;28;20036;-91
2022/01/24 05:03:49;;;;;;;25.30;14.68;;;;;;;;;;5075576;28;20623;-90
2022/01/24 05:06:16;;;;;;;21.17;12.98;;;;;;;;;;5074997;28;20036;-91
2022/01/24 05:08:42;;;;;;;26.27;15.77;;;;;;;;;;5058805;28;20100;-91
2022/01/24 05:11:13;;;;;;;25.13;14.50;;;;;;;;;;5058702;28;20044;-91
2022/01/24 05:24:32;;;;;;;23.98;14.60;;;;;;;;;;5075189;28;20042;-91
2022/01/24 05:26:58;;;;;;;23.20;15.15;;;;;;;;;;5074766;28;20048;-92
2022/01/24 05:29:25;;;;;;;23.45;14.88;;;;;;;;;;5075420;28;20521;-92
2022/01/24 05:31:51;;;;;;;22.27;13.85;;;;;;;;;;5075387;28;20372;-92
2022/01/24 05:34:17;;;;;;;28.63;14.50;;;;;;;;;;5058637;28;20155;-91
2022/01/24 05:36:43;;;;;;;20.92;13.75;;;;;;;;;;5058063;28;20036;-91
2022/01/24 05:39:11;;;;;;;24.10;15.48;;;;;;;;;;5074388;28;20487;-90
2022/01/24 05:41:41;;;;;;;23.38;14.38;;;;;;;;;;5108508;28;20036;-90
2022/01/24 05:44:08;;;;;;;22.48;14.75;;;;;;;;;;5058071;28;20491;-91
2022/01/24 05:46:34;;;;;;;21.45;13.75;;;;;;;;;;5074773;28;20553;-91
2022/01/24 05:49:01;;;;;;;24.30;15.10;;;;;;;;;;5074716;28;20036;-91
2022/01/24 05:51:28;;;;;;;21.88;14.38;;;;;;;;;;5108588;28;20429;-91
2022/01/24 05:53:54;;;;;;;21.85;13.32;;;;;;;;;;5108381;28;20054;-91
2022/01/24 05:56:21;;;;;;;25.58;14.85;;;;;;;;;;5108523;28;20072;-91
2022/01/24 05:58:47;;;;;;;23.42;14.27;;;;;;;;;;5108838;28;20579;-91
2022/01/24 06:01:13;;;;;;;21.60;13.30;;;;;;;;;;5108849;28;20043;-90
2022/01/24 06:03:39;;;;;;;20.83;13.43;;;;;;;;;;5057865;28;20040;-91
2022/01/24 06:06:08;;;;;;;20.98;13.30;;;;;;;;;;5108589;28;20089;-91
2022/01/24 06:08:34;;;;;;;22.17;14.00;;;;;;;;;;5108669;28;20044;-92
2022/01/24 06:11:00;;;;;;;21.08;13.40;;;;;;;;;;5108345;28;20079;-91
2022/01/24 06:13:27;;;;;;;25.50;14.82;;;;;;;;;;5108492;28;20621;-91
2022/01/24 06:15:54;;;;;;;21.92;13.85;;;;;;;;;;5108181;28;20127;-91
2022/01/24 06:18:21;;;;;;;22.17;14.35;;;;;;;;;;5074585;28;20040;-91
2022/01/24 06:20:47;;;;;;;23.15;15.07;;;;;;;;;;5108148;28;20119;-90
2022/01/24 06:23:14;;;;;;;22.85;14.27;;;;;;;;;;5057770;28;20503;-91
2022/01/24 06:25:41;;;;;;;22.95;14.52;;;;;;;;;;5074402;28;20125;-91
2022/01/24 06:28:11;;;;;;;23.48;14.60;;;;;;;;;;5074646;28;20135;-91
2022/01/24 06:30:37;;;;;;;19.85;12.50;;;;;;;;;;5091983;28;20032;-92
2022/01/24 06:33:03;;;;;;;19.20;12.55;;;;;;;;;;5074361;28;20040;-91
2022/01/24 06:35:29;;;;;;;22.60;13.70;;;;;;;;;;5091034;28;20446;-91
2022/01/24 06:37:56;;;;;;;19.85;12.60;;;;;;;;;;5090888;28;20119;-91
2022/01/24 06:40:22;;;;;;;19.65;12.70;;;;;;;;;;5108104;28;20042;-90
2022/01/24 06:42:48;;;;;;;22.05;14.05;;;;;;;;;;5057559;28;20040;-91
2022/01/24 06:45:15;;;;;;;21.75;13.48;;;;;;;;;;5057795;28;20040;-91
2022/01/24 06:47:41;;;;;;;22.00;13.00;;;;;;;;;;5107869;28;20047;-90
2022/01/24 06:50:08;;;;;;;22.50;13.73;;;;;;;;;;5108450;28;20036;-90
2022/01/24 06:52:34;;;;;;;22.08;13.88;;;;;;;;;;5061602;28;20368;-91
2022/01/24 06:55:00;;;;;;;20.30;13.63;;;;;;;;;;5061084;28;20127;-91
2022/01/24 06:57:26;;;;;;;23.10;14.55;;;;;;;;;;5061099;28;20036;-91
2022/01/24 06:59:53;;;;;;;23.00;14.55;;;;;;;;;;5111769;28;20127;-91
2022/01/24 07:02:19;;;;;;;22.45;14.48;;;;;;;;;;5060984;28;20047;-90
2022/01/24 07:04:45;;;;;;;22.70;14.73;;;;;;;;;;5077597;28;20043;-91
2022/01/24 07:07:12;;;;;;;20.42;13.57;;;;;;;;;;5111854;28;20375;-90
2022/01/24 07:09:39;;;;;;;22.50;13.77;;;;;;;;;;5111588;28;20040;-91
2022/01/24 07:12:06;;;;;;;18.48;12.65;;;;;;;;;;5060812;28;20089;-91
2022/01/24 07:14:32;;;;;;;19.63;13.38;;;;;;;;;;5061048;28;20035;-92
2022/01/24 07:19:29;;;;;;;22.75;13.80;;;;;;;;;;5078115;28;20119;-92
2022/01/24 07:21:57;;;;;;;20.42;13.02;;;;;;;;;;5061341;28;20515;-91
2022/01/24 07:24:23;;;;;;;19.60;13.13;;;;;;;;;;5111951;28;20036;-92
2022/01/24 07:26:50;;;;;;;20.95;13.13;;;;;;;;;;5112436;28;20097;-92
2022/01/24 07:29:16;;;;;;;20.50;12.98;;;;;;;;;;5112262;28;20063;-92
2022/01/24 07:31:43;;;;;;;20.95;12.73;;;;;;;;;;5061544;28;20036;-92
2022/01/24 07:34:09;;;;;;;19.90;13.32;;;;;;;;;;5078511;28;20032;-94
2022/01/24 07:36:36;;;;;;;22.67;12.20;;;;;;;;;;5061261;28;20036;-93
2022/01/24 07:39:02;;;;;;;20.92;12.52;;;;;;;;;;5061058;28;20043;-93
2022/01/24 07:41:30;;;;;;;21.50;13.10;;;;;;;;;;5061628;28;20394;-93
2022/01/24 07:43:57;;;;;;;21.05;12.70;;;;;;;;;;5060711;28;20395;-93
2022/01/24 07:46:23;;;;;;;20.00;13.30;;;;;;;;;;5076619;28;20043;-92
2022/01/24 07:48:49;;;;;;;21.20;13.07;;;;;;;;;;5076437;28;20039;-93
2022/01/24 07:51:16;;;;;;;21.55;12.55;;;;;;;;;;5059590;28;20479;-93
2022/01/24 07:53:42;;;;;;;21.58;13.95;;;;;;;;;;5074821;28;20082;-92
2022/01/24 07:56:09;;;;;;;23.13;14.55;;;;;;;;;;5075640;28;20408;-92
2022/01/24 07:58:35;;;;;;;20.52;12.32;;;;;;;;;;5114366;27;20040;-91
2022/01/24 08:01:01;;;;;;;22.20;13.65;;;;;;;;;;5074518;28;20100;-93
2022/01/24 08:03:27;;;;;;;22.00;14.15;;;;;;;;;;5084376;28;20028;-93
2022/01/24 08:05:54;;;;;;;22.23;14.23;;;;;;;;;;5065785;28;20542;-93
2022/01/24 08:08:21;;;;;;;22.05;14.27;;;;;;;;;;5086741;28;20036;-92
2022/01/24 08:10:47;;;;;;;21.50;13.30;;;;;;;;;;5105837;28;20129;-93
2022/01/24 08:13:14;;;;;;;23.05;14.23;;;;;;;;;;5063908;28;20040;-93
2022/01/24 08:15:40;;;;;;;21.85;14.73;;;;;;;;;;5058992;28;20516;-93
2022/01/24 08:18:07;;;;;;;24.10;15.45;;;;;;;;;;5075993;28;20492;-94
2022/01/24 08:20:33;;;;;;;22.48;14.18;;;;;;;;;;5077364;28;20526;-94
2022/01/24 08:23:00;;;;;;;21.80;14.05;;;;;;;;;;5060101;28;20047;-93
2022/01/24 08:25:26;;;;;;;25.02;14.95;;;;;;;;;;5076565;28;20036;-93
2022/01/24 08:27:53;;;;;;;26.65;15.27;;;;;;;;;;5076551;28;20094;-93
2022/01/24 08:30:20;;;;;;;23.55;14.65;;;;;;;;;;5076461;28;20047;-93
2022/01/24 08:32:47;;;;;;;24.25;14.27;;;;;;;;;;5076517;28;20043;-93
2022/01/24 08:35:14;;;;;;;26.00;15.63;;;;;;;;;;5075530;28;20044;-93
2022/01/24 08:37:41;;;;;;;23.10;14.20;;;;;;;;;;5074856;28;20036;-92
2022/01/24 08:40:08;;;;;;;27.27;16.98;;;;;;;;;;5058327;28;20101;-92
2022/01/24 08:42:41;;;;;;;26.55;15.70;;;;;;;;;;5107883;28;20032;-87
2022/01/24 08:47:37;;;;;;;31.00;17.55;;;;;;;;;;5109073;28;20127;-92
2022/01/24 08:50:04;;;;;;;27.23;16.73;;;;;;;;;;5058437;28;20043;-90
2022/01/24 08:52:31;;;;;;;29.02;17.48;;;;;;;;;;5058735;28;20119;-92
2022/01/24 08:54:57;;;;;;;30.60;18.38;;;;;;;;;;5109557;28;20181;-92
2022/01/24 08:57:26;;;;;;;29.67;18.02;;;;;;;;;;5079647;28;20040;-93
2022/01/24 08:59:56;;;;;;;31.40;18.95;;;;;;;;;;5079134;28;20046;-93
2022/01/24 09:02:23;;;;;;;33.80;19.90;;;;;;;;;;5095917;28;20495;-92
2022/01/24 09:04:49;;;;;;;30.88;18.55;;;;;;;;;;5095584;28;20038;-92
2022/01/24 09:07:18;;;;;;;30.35;17.60;;;;;;;;;;5078508;28;20043;-92
2022/01/24 09:09:44;;;;;;;30.27;18.08;;;;;;;;;;5095317;28;20097;-92
2022/01/24 09:12:12;;;;;;;28.95;18.02;;;;;;;;;;5076333;28;20065;-92
2022/01/24 09:14:43;;;;;;;29.35;17.98;;;;;;;;;;5085534;28;20044;-90
2022/01/24 09:17:10;;;;;;;33.38;18.83;;;;;;;;;;5075509;28;20048;-91
2022/01/24 09:19:36;;;;;;;27.13;16.58;;;;;;;;;;5106299;28;20490;-92
2022/01/24 09:22:03;;;;;;;28.05;16.48;;;;;;;;;;5057160;28;20039;-92
2022/01/24 09:24:29;;;;;;;35.10;17.95;;;;;;;;;;5074737;28;20360;-92
2022/01/24 09:26:55;;;;;;;30.58;19.67;;;;;;;;;;5091622;28;20043;-93
2022/01/24 09:29:21;;;;;;;39.13;23.65;;;;;;;;;;5074830;28;20044;-92
2022/01/24 09:31:47;;;;;;;34.13;21.15;;;;;;;;;;5092062;28;20036;-93
2022/01/24 09:34:14;;;;;;;37.35;20.00;;;;;;;;;;5075605;28;20429;-93
2022/01/24 09:36:40;;;;;;;37.42;22.50;;;;;;;;;;5091687;28;20036;-93
2022/01/24 09:39:06;;;;;;;40.47;22.92;;;;;;;;;;5075104;28;20044;-93
2022/01/24 09:41:32;;;;;;;40.92;22.70;;;;;;;;;;5074662;28;20051;-93
2022/01/24 09:43:59;;;;;;;42.03;25.85;;;;;;;;;;5074844;28;20035;-92
2022/01/24 09:46:25;;;;;;;41.63;22.80;;;;;;;;;;5074652;28;20130;-92
2022/01/24 09:48:51;;;;;;;40.45;23.42;;;;;;;;;;5074186;28;20044;-92
2022/01/24 09:51:18;;;;;;;37.35;22.10;;;;;;;;;;5074284;28;20086;-92
2022/01/24 09:53:44;;;;;;;42.05;24.33;;;;;;;;;;5090803;28;20044;-92
2022/01/24 09:56:10;;;;;;;43.90;24.25;;;;;;;;;;5089756;28;20036;-92
2022/01/24 09:58:37;;;;;;;46.92;26.05;;;;;;;;;;5107727;28;20043;-93
2022/01/24 10:01:04;;;;;;;46.95;25.25;;;;;;;;;;5108281;28;20035;-92
2022/01/24 10:03:30;;;;;;;54.75;29.98;;;;;;;;;;5106769;28;20047;-91
2022/01/24 10:05:58;;;;;;;46.72;26.55;;;;;;;;;;5089903;28;20092;-93
2022/01/24 10:08:25;;;;;;;50.75;28.40;;;;;;;;;;5090646;28;20043;-91
2022/01/24 10:10:52;;;;;;;54.58;29.48;;;;;;;;;;5072214;28;20173;-91
2022/01/24 10:16:26;;;;;;;53.63;30.05;;;;;;;;;;5073778;28;20135;-93
2022/01/24 10:18:58;;;;;;;53.70;31.77;;;;;;;;;;5107886;28;20040;-93
2022/01/24 10:21:25;;;;;;;52.85;31.05;;;;;;;;;;5074499;28;20070;-93
2022/01/24 10:23:51;;;;;;;57.15;32.20;;;;;;;;;;5072555;28;20093;-91
2022/01/24 10:26:18;;;;;;;65.65;35.60;;;;;;;;;;5061319;28;20050;-92
2022/01/24 10:28:46;;;;;;;60.00;33.13;;;;;;;;;;5098259;28;20047;-92
2022/01/24 10:31:16;;;;;;;59.05;32.90;;;;;;;;;;5098125;28;20519;-93
2022/01/24 10:33:53;;;;;;;61.28;33.90;;;;;;;;;;5081130;28;20039;-91
2022/01/24 10:36:39;;;;;;;68.38;38.05;;;;;;;;;;5097921;28;20042;-92
2022/01/24 10:39:14;;;;;;;66.97;36.90;;;;;;;;;;5098623;28;20038;-92
2022/01/24 10:42:09;;;;;;;62.67;37.03;;;;;;;;;;5098761;28;20075;-92
2022/01/24 10:44:37;;;;;;;68.78;39.53;;;;;;;;;;5064864;28;20032;-93
2022/01/24 10:47:13;;;;;;;75.55;39.28;;;;;;;;;;5077213;28;20506;-92
2022/01/24 10:49:40;;;;;;;65.32;37.17;;;;;;;;;;5062083;28;20484;-92
2022/01/24 10:52:26;;;;;;;67.55;37.53;;;;;;;;;;5110691;28;20066;-92
2022/01/24 10:54:55;;;;;;;68.15;37.38;;;;;;;;;;5061022;28;20067;-92
2022/01/24 10:57:23;;;;;;;73.13;40.97;;;;;;;;;;5059514;28;20097;-92
2022/01/24 10:59:50;;;;;;;66.00;37.85;;;;;;;;;;5076849;28;20055;-93
2022/01/24 11:02:17;;;;;;;73.75;39.58;;;;;;;;;;5094115;28;20044;-92
2022/01/24 11:04:43;;;;;;;76.72;42.28;;;;;;;;;;5094204;28;20039;-93
2022/01/24 11:07:10;;;;;;;71.90;38.70;;;;;;;;;;5111079;28;20044;-92
2022/01/24 11:09:40;;;;;;;72.70;40.13;;;;;;;;;;5111693;28;20119;-92
2022/01/24 11:12:10;;;;;;;70.78;39.72;;;;;;;;;;5111829;28;20047;-92
2022/01/24 11:14:37;;;;;;;66.40;38.65;;;;;;;;;;5111716;28;20036;-93
2022/01/24 11:17:04;;;;;;;72.97;40.17;;;;;;;;;;5095325;28;20136;-94
2022/01/24 11:22:01;;;;;;;66.55;38.50;;;;;;;;;;5077661;28;20043;-93
2022/01/24 11:27:14;;;;;;;53.20;33.90;;;;;;;;;;5106336;28;20496;-93
2022/01/24 11:29:40;;;;;;;54.47;33.97;;;;;;;;;;5054899;28;20496;-92
2022/01/24 11:32:38;;;;;;;52.97;33.60;;;;;;;;;;5054594;28;20076;-91
2022/01/24 11:35:04;;;;;;;47.05;30.30;;;;;;;;;;5019680;28;20052;-91
2022/01/24 11:37:42;;;;;;;49.58;32.35;;;;;;;;;;5068554;28;20114;-91
2022/01/24 11:40:13;;;;;;;52.70;32.85;;;;;;;;;;5074886;28;20036;-92
2022/01/24 11:42:40;;;;;;;46.97;31.23;;;;;;;;;;5092096;28;20463;-92
2022/01/24 11:45:12;;;;;;;51.80;31.60;;;;;;;;;;5058654;28;20044;-91
2022/01/24 11:47:39;;;;;;;50.10;31.92;;;;;;;;;;5057711;28;20032;-91
2022/01/24 11:50:24;;;;;;;49.95;32.00;;;;;;;;;;5108376;28;20032;-90
2022/01/24 11:52:50;;;;;;;;;;;;;;;;;;5092206;28;20514;-90
2022/01/24 11:55:30;;;;;;;54.38;33.03;;;;;;;;;;5057923;28;20339;-90
2022/01/24 11:58:02;;;;;;;46.90;30.48;;;;;;;;;;5091790;28;20044;-91
2022/01/24 12:00:35;;;;;;;50.92;32.25;;;;;;;;;;5108974;28;20036;-91
2022/01/24 12:03:13;;;;;;;49.30;31.08;;;;;;;;;;5091078;28;20118;-91
2022/01/24 12:05:48;;;;;;;48.97;30.25;;;;;;;;;;5108111;28;20105;-90
2022/01/24 12:08:27;;;;;;;43.58;29.88;;;;;;;;;;5091477;28;20100;-91
2022/01/24 12:10:57;;;;;;;45.45;28.70;;;;;;;;;;5124821;27;20093;-90
2022/01/24 12:13:30;;;;;;;43.13;27.80;;;;;;;;;;5108006;28;20652;-90
2022/01/24 12:15:58;;;;;;;45.80;29.40;;;;;;;;;;5108142;27;20052;-90
2022/01/24 12:18:28;;;;;;;45.22;28.40;;;;;;;;;;5091236;28;20075;-92
2022/01/24 12:21:07;;;;;;;42.65;29.08;;;;;;;;;;5094700;28;20047;-95
2022/01/24 12:23:45;;;;;;;46.05;29.30;;;;;;;;;;5111723;28;20040;-93
2022/01/24 12:26:15;;;;;;;45.30;29.77;;;;;;;;;;5091794;28;20521;-92
2022/01/24 12:28:44;;;;;;;45.67;29.45;;;;;;;;;;5089415;28;20403;-92
2022/01/24 12:31:12;;;;;;;45.80;29.42;;;;;;;;;;5091707;28;20483;-91
2022/01/24 12:33:43;;;;;;;45.40;29.42;;;;;;;;;;5090338;28;20061;-92
2022/01/24 12:36:10;;;;;;;45.80;31.10;;;;;;;;;;5108322;28;20535;-92
2022/01/24 12:38:47;;;;;;;47.17;30.60;;;;;;;;;;5126138;27;20126;-93
2022/01/24 12:41:32;;;;;;;38.95;27.13;;;;;;;;;;5126153;27;20109;-92
2022/01/24 12:46:28;;;;;;;39.55;25.40;;;;;;;;;;5124898;27;20127;-91
2022/01/24 12:48:56;;;;;;;39.20;25.70;;;;;;;;;;5106309;27;20044;-92
2022/01/24 12:51:23;;;;;;;37.78;24.80;;;;;;;;;;5090515;28;20100;-90
2022/01/24 12:53:50;;;;;;;37.53;25.20;;;;;;;;;;5107255;28;20093;-91
2022/01/24 12:56:18;;;;;;;40.15;25.83;;;;;;;;;;5124554;27;20453;-91
2022/01/24 12:58:46;;;;;;;39.22;25.90;;;;;;;;;;5088888;28;20040;-91
2022/01/24 13:01:27;;;;;;;37.80;25.48;;;;;;;;;;5077273;28;20043;-93
2022/01/24 13:03:56;;;;;;;40.67;26.05;;;;;;;;;;5096310;28;20104;-92
2022/01/24 13:06:22;;;;;;;37.80;25.58;;;;;;;;;;5077714;28;20573;-92
2022/01/24 13:09:26;;;;;;;39.53;25.48;;;;;;;;;;5110159;27;20126;-93
2022/01/24 13:11:54;;;;;;;37.38;23.60;;;;;;;;;;5042812;28;20120;-91
2022/01/24 13:14:29;;;;;;;40.38;27.05;;;;;;;;;;5066882;28;20360;-92
2022/01/24 13:22:47;;;;;;;33.42;22.42;;;;;;;;;;5135981;27;20044;-92
2022/01/24 13:25:16;;;;;;;34.88;23.55;;;;;;;;;;5056814;28;20202;-92
2022/01/24 13:27:44;;;;;;;37.80;23.85;;;;;;;;;;5117048;27;20395;-92
2022/01/24 13:30:34;;;;;;;36.47;22.95;;;;;;;;;;5069287;28;20101;-92
2022/01/24 13:33:00;;;;;;;40.25;26.25;;;;;;;;;;5074548;28;20040;-93
2022/01/24 13:35:27;;;;;;;38.67;25.73;;;;;;;;;;5109354;28;20406;-93
2022/01/24 13:37:58;;;;;;;37.47;23.90;;;;;;;;;;5092087;28;20047;-92
2022/01/24 13:40:31;;;;;;;36.42;25.13;;;;;;;;;;5108642;28;20036;-93
2022/01/24 13:42:58;;;;;;;39.70;25.58;;;;;;;;;;5109203;28;20040;-92
2022/01/24 13:45:24;;;;;;;36.50;24.85;;;;;;;;;;5126738;27;20082;-93
2022/01/24 13:48:00;;;;;;;38.15;25.40;;;;;;;;;;5125874;27;20477;-94
2022/01/24 13:50:27;;;;;;;38.25;24.92;;;;;;;;;;5126130;27;20048;-94
2022/01/24 13:52:53;;;;;;;37.15;24.48;;;;;;;;;;5126973;27;20431;-93
2022/01/24 13:55:20;;;;;;;42.08;26.85;;;;;;;;;;5110324;28;20044;-94
2022/01/24 13:57:48;;;;;;;38.63;26.30;;;;;;;;;;5109535;28;20032;-90
2022/01/24 14:00:16;;;;;;;39.92;25.45;;;;;;;;;;5091176;28;20552;-93
2022/01/24 14:02:43;;;;;;;40.28;27.25;;;;;;;;;;5090085;28;20047;-94
2022/01/24 14:05:09;;;;;;;40.60;27.10;;;;;;;;;;5107821;28;20044;-92
2022/01/24 14:07:41;;;;;;;40.28;25.58;;;;;;;;;;5106414;28;20036;-91
2022/01/24 14:10:13;;;;;;;39.88;25.08;;;;;;;;;;5108370;28;20085;-92
2022/01/24 14:15:24;;;;;;;41.25;27.38;;;;;;;;;;5126264;28;20044;-93
2022/01/24 14:20:44;;;;;;;38.28;24.67;;;;;;;;;;5108385;28;20044;-92
2022/01/24 14:23:21;;;;;;;36.33;23.73;;;;;;;;;;5089837;28;20435;-92
2022/01/24 14:25:47;;;;;;;37.70;24.15;;;;;;;;;;5092423;28;20044;-93
2022/01/24 14:28:13;;;;;;;36.03;24.63;;;;;;;;;;5087304;28;20122;-91
2022/01/24 14:30:42;;;;;;;43.63;27.05;;;;;;;;;;5054434;28;20047;-94
2022/01/24 14:33:18;;;;;;;40.08;25.67;;;;;;;;;;5087348;28;20044;-93
2022/01/24 14:35:53;;;;;;;39.80;26.48;;;;;;;;;;5074981;28;20031;-91
2022/01/24 14:38:29;;;;;;;42.13;27.35;;;;;;;;;;5074983;28;20107;-90
2022/01/24 14:40:58;;;;;;;40.10;27.33;;;;;;;;;;5060909;28;20040;-92
2022/01/24 14:46:09;;;;;;;;;;;;;;;;;;5060156;28;20049;-92
2022/01/24 14:49:02;;;;;;;43.72;27.98;;;;;;;;;;5101664;28;19916;-92
2022/01/24 14:51:33;;;;;;;39.28;25.23;;;;;;;;;;5042707;28;20263;-94
2022/01/24 14:54:01;;;;;;;39.45;26.13;;;;;;;;;;5114183;28;20062;-93
2022/01/24 14:56:28;;;;;;;43.10;29.17;;;;;;;;;;5083152;28;20035;-94
2022/01/24 14:58:54;;;;;;;41.30;27.45;;;;;;;;;;5068933;28;20075;-92
2022/01/24 15:01:21;;;;;;;37.95;25.50;;;;;;;;;;5077399;28;20040;-93
2022/01/24 15:03:49;;;;;;;39.17;25.67;;;;;;;;;;5107565;28;20118;-87
2022/01/24 15:06:16;;;;;;;40.33;27.13;;;;;;;;;;5064220;28;20553;-93
2022/01/24 15:08:43;;;;;;;46.08;29.27;;;;;;;;;;5077488;28;20644;-91
2022/01/24 15:11:15;;;;;;;46.03;29.70;;;;;;;;;;5079252;28;20081;-94
2022/01/24 15:13:55;;;;;;;43.80;28.67;;;;;;;;;;5099158;28;20413;-90
2022/01/24 15:16:33;;;;;;;47.05;31.13;;;;;;;;;;5081979;28;20513;-91
2022/01/24 15:27:14;;;;;;;47.20;29.50;;;;;;;;;;5112888;28;20529;-93
2022/01/24 15:29:41;;;;;;;47.53;30.30;;;;;;;;;;5078814;28;20439;-94
2022/01/24 15:32:09;;;;;;;48.50;30.20;;;;;;;;;;5061946;28;20136;-94
2022/01/24 15:34:36;;;;;;;46.75;28.80;;;;;;;;;;5061798;28;20131;-93
2022/01/24 15:37:03;;;;;;;42.97;27.48;;;;;;;;;;5061264;28;20043;-93
2022/01/24 15:39:30;;;;;;;47.88;30.27;;;;;;;;;;5076595;28;20090;-92
2022/01/24 15:44:35;;;;;;;50.65;31.60;;;;;;;;;;5083698;28;20036;-91
2022/01/24 15:49:39;;;;;;;52.17;33.17;;;;;;;;;;5073415;28;20055;-91
2022/01/24 15:52:06;;;;;;;48.58;31.75;;;;;;;;;;5065746;28;20579;-92
2022/01/24 15:54:33;;;;;;;46.40;29.55;;;;;;;;;;5079909;28;20039;-92
2022/01/24 15:59:45;;;;;;;46.75;29.45;;;;;;;;;;5076774;28;20525;-93
2022/01/24 16:02:11;;;;;;;51.25;31.58;;;;;;;;;;5075275;28;20040;-93
2022/01/24 16:04:38;;;;;;;46.88;29.70;;;;;;;;;;5093591;28;20036;-93
2022/01/24 16:07:04;;;;;;;47.55;29.70;;;;;;;;;;5091034;28;20036;-92
2022/01/24 16:09:30;;;;;;;48.58;30.40;;;;;;;;;;5081615;28;20039;-92
2022/01/24 16:11:57;;;;;;;45.65;28.13;;;;;;;;;;5073821;28;20051;-92
2022/01/24 16:14:23;;;;;;;50.08;30.58;;;;;;;;;;5107452;28;20562;-91
2022/01/24 16:16:49;;;;;;;46.92;29.23;;;;;;;;;;5072595;28;20047;-91
2022/01/24 16:19:18;;;;;;;47.60;30.17;;;;;;;;;;5072636;28;20496;-91
2022/01/24 16:22:01;;;;;;;48.90;30.88;;;;;;;;;;5089120;28;20044;-91
2022/01/24 16:26:56;;;;;;;48.75;30.10;;;;;;;;;;5112061;27;20032;-90
2022/01/24 16:29:22;;;;;;;55.15;33.25;;;;;;;;;;5075333;28;20035;-90
2022/01/24 16:31:49;;;;;;;51.50;31.90;;;;;;;;;;5066569;28;20051;-91
2022/01/24 16:34:15;;;;;;;53.05;32.47;;;;;;;;;;5068638;28;20048;-90
2022/01/24 16:36:41;;;;;;;50.83;29.90;;;;;;;;;;5065828;28;20044;-90
2022/01/24 16:39:10;;;;;;;53.88;31.88;;;;;;;;;;5075629;28;20076;-91